Time;durP1;ratioP1;P1;durP2;ratioP2;P2;SDS_P1;SDS_P2;PMS_P1;PMS_P2;Temp;Humidity;BMP_temperature;BMP_pressure;BME280_temperature;BME280_humidity;BME280_pressure;Samples;Min_cycle;Max_cycle;Signal;HPM_P1;HPM_P2
2024/02/10 00:01:24;;;;;;;2.27;1.20;;;24.20;59.10;;;;;;5034734;28;20442;-89
2024/02/10 00:03:51;;;;;;;2.77;1.70;;;24.20;59.10;;;;;;5034612;28;20477;-89
2024/02/10 00:06:17;;;;;;;1.87;1.20;;;24.20;59.10;;;;;;5034615;28;20498;-89
2024/02/10 00:08:45;;;;;;;2.93;1.70;;;24.20;59.10;;;;;;5034831;28;20957;-89
2024/02/10 00:11:12;;;;;;;1.87;1.20;;;24.10;59.00;;;;;;5034775;28;20549;-89
2024/02/10 00:13:41;;;;;;;1.80;1.20;;;24.10;59.10;;;;;;5041927;28;20506;-89
2024/02/10 00:16:09;;;;;;;1.70;1.27;;;24.10;59.00;;;;;;5049855;28;20480;-89
2024/02/10 00:18:40;;;;;;;2.20;1.47;;;24.10;59.00;;;;;;5048082;28;20442;-86
2024/02/10 00:21:07;;;;;;;2.07;1.40;;;24.10;59.10;;;;;;5041371;28;20926;-88
2024/02/10 00:23:34;;;;;;;2.37;1.60;;;24.00;59.00;;;;;;5035793;28;20448;-88
2024/02/10 00:26:03;;;;;;;2.03;1.20;;;24.00;59.00;;;;;;5034543;28;20486;-89
2024/02/10 00:28:30;;;;;;;2.00;1.10;;;24.10;59.10;;;;;;5034839;28;20860;-89
2024/02/10 00:30:59;;;;;;;2.53;1.50;;;24.10;59.00;;;;;;5034755;28;20446;-87
2024/02/10 00:33:26;;;;;;;1.80;1.30;;;24.00;59.00;;;;;;5034628;28;20478;-88
2024/02/10 00:35:54;;;;;;;2.63;1.30;;;24.00;59.00;;;;;;5034117;28;20783;-88
2024/02/10 00:38:21;;;;;;;3.10;1.60;;;24.00;59.00;;;;;;5034326;28;20515;-88
2024/02/10 00:40:49;;;;;;;2.10;1.30;;;24.00;59.00;;;;;;5034178;28;20445;-87
2024/02/10 00:43:16;;;;;;;2.73;1.27;;;24.10;59.10;;;;;;5034642;28;20505;-88
2024/02/10 00:45:43;;;;;;;3.20;1.23;;;24.00;59.00;;;;;;5034015;28;20486;-88
2024/02/10 00:48:10;;;;;;;2.87;1.37;;;24.00;59.00;;;;;;5034264;28;20533;-88
2024/02/10 00:50:37;;;;;;;1.70;1.10;;;24.00;59.00;;;;;;5034667;28;20525;-88
2024/02/10 00:53:05;;;;;;;2.07;1.30;;;24.00;59.00;;;;;;5034331;28;20442;-88
2024/02/10 00:55:32;;;;;;;2.87;1.57;;;24.00;59.00;;;;;;5034476;28;20469;-88
2024/02/10 00:58:02;;;;;;;1.80;1.23;;;24.00;59.00;;;;;;5034228;28;20452;-88
2024/02/10 01:00:31;;;;;;;2.37;1.50;;;24.00;59.00;;;;;;5034372;28;20594;-88
2024/02/10 01:02:58;;;;;;;2.80;1.60;;;24.00;59.00;;;;;;5034483;28;20501;-88
2024/02/10 01:05:25;;;;;;;2.23;1.50;;;23.90;58.90;;;;;;5034194;28;20494;-88
2024/02/10 01:07:52;;;;;;;1.60;1.13;;;23.90;58.90;;;;;;5035066;28;20458;-88
2024/02/10 01:10:20;;;;;;;1.80;1.27;;;23.90;58.90;;;;;;5034465;28;20442;-88
2024/02/10 01:12:47;;;;;;;3.30;1.00;;;23.90;59.00;;;;;;5037258;28;20449;-89
2024/02/10 01:15:16;;;;;;;1.93;1.07;;;23.90;58.90;;;;;;5058017;28;20434;-88
2024/02/10 01:17:46;;;;;;;2.00;1.17;;;23.90;58.90;;;;;;5058150;28;20457;-88
2024/02/10 01:20:17;;;;;;;1.97;1.23;;;23.90;59.00;;;;;;5035791;28;20439;-88
2024/02/10 01:22:45;;;;;;;1.97;1.40;;;23.90;59.00;;;;;;5034234;28;20450;-88
2024/02/10 01:25:11;;;;;;;1.97;1.20;;;23.90;59.00;;;;;;5033738;28;20512;-89
2024/02/10 01:27:44;;;;;;;1.73;1.20;;;23.90;59.00;;;;;;5037998;28;20929;-89
2024/02/10 01:30:13;;;;;;;1.83;1.10;;;23.90;59.00;;;;;;5038238;28;20465;-89
2024/02/10 01:32:42;;;;;;;2.27;1.20;;;23.80;59.00;;;;;;5037760;28;20457;-89
2024/02/10 01:35:09;;;;;;;1.70;1.10;;;23.80;58.90;;;;;;5037896;28;20446;-89
2024/02/10 01:37:38;;;;;;;1.77;1.13;;;23.80;59.00;;;;;;5037944;28;20458;-89
2024/02/10 01:40:11;;;;;;;2.33;1.53;;;23.80;58.90;;;;;;5037942;28;20812;-89
2024/02/10 01:42:39;;;;;;;2.73;1.10;;;23.80;59.00;;;;;;5038454;28;20477;-88
2024/02/10 01:45:08;;;;;;;1.73;1.23;;;23.80;59.00;;;;;;5037632;28;20557;-88
2024/02/10 01:47:37;;;;;;;1.40;0.80;;;23.80;59.00;;;;;;5037852;28;20925;-89
2024/02/10 01:50:05;;;;;;;2.80;1.40;;;23.80;59.00;;;;;;5038234;28;20449;-89
2024/02/10 01:52:33;;;;;;;1.80;1.17;;;23.80;59.00;;;;;;5037388;28;20446;-89
2024/02/10 01:55:00;;;;;;;1.70;1.20;;;23.80;59.00;;;;;;5037481;28;20449;-88
2024/02/10 01:57:28;;;;;;;1.83;1.00;;;23.90;59.00;;;;;;5037423;28;20452;-88
2024/02/10 01:59:59;;;;;;;3.93;1.80;;;23.90;59.10;;;;;;5037505;28;20445;-88
2024/02/10 02:02:30;;;;;;;1.80;1.40;;;23.80;59.00;;;;;;5037305;28;20557;-89
2024/02/10 02:04:58;;;;;;;2.10;1.30;;;23.80;58.90;;;;;;5039286;28;20484;-88
2024/02/10 02:07:25;;;;;;;1.80;1.20;;;23.80;58.90;;;;;;5037311;28;20911;-88
2024/02/10 02:09:52;;;;;;;2.43;0.90;;;23.90;59.00;;;;;;5037073;28;20442;-89
2024/02/10 02:12:18;;;;;;;1.73;1.03;;;23.80;58.90;;;;;;5037750;28;20442;-89
2024/02/10 02:14:47;;;;;;;1.50;1.00;;;23.90;58.90;;;;;;5037071;28;20533;-88
2024/02/10 02:17:15;;;;;;;1.90;1.20;;;23.90;58.90;;;;;;5036983;28;20450;-89
2024/02/10 02:19:42;;;;;;;1.80;1.40;;;23.90;58.80;;;;;;5037389;28;20537;-89
2024/02/10 02:22:10;;;;;;;1.90;1.20;;;23.90;58.90;;;;;;5037830;28;20459;-89
2024/02/10 02:24:38;;;;;;;2.40;1.37;;;23.90;58.80;;;;;;5037116;28;20450;-89
2024/02/10 02:27:08;;;;;;;1.93;1.10;;;23.90;58.80;;;;;;5037230;28;20490;-89
2024/02/10 02:29:35;;;;;;;1.50;1.10;;;23.90;58.80;;;;;;5037052;28;20521;-89
2024/02/10 02:32:03;;;;;;;1.80;1.30;;;24.00;58.90;;;;;;5036798;28;20954;-89
2024/02/10 02:34:33;;;;;;;1.90;1.20;;;23.90;58.80;;;;;;5036662;28;20537;-89
2024/02/10 02:36:59;;;;;;;1.60;1.07;;;24.00;58.80;;;;;;5037219;28;20474;-89
2024/02/10 02:39:26;;;;;;;1.60;0.93;;;24.00;58.80;;;;;;5036769;28;20480;-89
2024/02/10 02:41:59;;;;;;;1.60;1.03;;;24.00;58.80;;;;;;5036559;28;20438;-88
2024/02/10 02:44:26;;;;;;;1.60;1.07;;;24.00;58.80;;;;;;5036684;28;20449;-89
2024/02/10 02:46:54;;;;;;;1.57;0.93;;;24.00;58.80;;;;;;5036602;28;20486;-89
2024/02/10 02:49:23;;;;;;;1.80;1.10;;;24.00;58.80;;;;;;5036218;28;20454;-88
2024/02/10 02:51:50;;;;;;;1.90;1.10;;;24.00;58.80;;;;;;5040456;28;20449;-89
2024/02/10 02:54:18;;;;;;;2.60;1.03;;;24.00;58.80;;;;;;5037880;28;20457;-89
2024/02/10 02:56:45;;;;;;;1.50;0.90;;;24.00;58.70;;;;;;5037931;28;20446;-89
2024/02/10 02:59:15;;;;;;;2.17;1.30;;;24.00;58.80;;;;;;5036286;28;20474;-89
2024/02/10 03:01:42;;;;;;;2.23;1.00;;;23.90;58.70;;;;;;5036427;28;20430;-89
2024/02/10 03:04:09;;;;;;;1.70;1.00;;;24.00;58.80;;;;;;5035886;28;20565;-89
2024/02/10 03:06:36;;;;;;;1.70;0.90;;;24.00;58.70;;;;;;5035825;28;20516;-89
2024/02/10 03:09:03;;;;;;;1.60;0.93;;;24.00;58.80;;;;;;5036100;28;20979;-89
2024/02/10 03:11:30;;;;;;;2.10;1.10;;;24.00;58.70;;;;;;5036408;28;20443;-89
2024/02/10 03:14:02;;;;;;;1.77;1.30;;;23.90;58.60;;;;;;5036420;28;20439;-89
2024/02/10 03:16:33;;;;;;;1.93;1.23;;;24.00;58.70;;;;;;5036680;28;20838;-88
2024/02/10 03:19:01;;;;;;;2.20;0.97;;;24.00;58.70;;;;;;5036131;28;20434;-88
2024/02/10 03:21:28;;;;;;;1.60;1.00;;;24.00;58.70;;;;;;5036104;28;20448;-88
2024/02/10 03:24:02;;;;;;;1.97;1.00;;;24.00;58.70;;;;;;5036252;28;20452;-88
2024/02/10 03:26:30;;;;;;;1.60;0.90;;;24.00;58.70;;;;;;5036051;28;21008;-89
2024/02/10 03:28:58;;;;;;;1.97;1.10;;;24.00;58.70;;;;;;5035814;28;20450;-88
2024/02/10 03:31:25;;;;;;;1.60;1.00;;;24.00;58.70;;;;;;5035883;28;20461;-89
2024/02/10 03:33:53;;;;;;;1.50;1.03;;;24.00;58.70;;;;;;5035638;28;20520;-88
2024/02/10 03:36:20;;;;;;;1.67;1.13;;;24.00;58.70;;;;;;5035479;28;21042;-89
2024/02/10 03:38:47;;;;;;;1.50;0.90;;;24.00;58.60;;;;;;5035622;28;20460;-89
2024/02/10 03:41:15;;;;;;;1.73;1.10;;;24.00;58.70;;;;;;5035969;28;20446;-88
2024/02/10 03:43:42;;;;;;;1.50;0.90;;;24.00;58.60;;;;;;5035678;28;20455;-88
2024/02/10 03:46:10;;;;;;;1.97;1.03;;;24.00;58.60;;;;;;5035141;28;20500;-88
2024/02/10 03:48:39;;;;;;;1.57;0.97;;;24.00;59.20;;;;;;5034633;28;20959;-88
2024/02/10 03:51:07;;;;;;;2.07;1.20;;;24.00;58.60;;;;;;5035339;28;20450;-88
2024/02/10 03:53:35;;;;;;;2.40;1.00;;;24.00;58.60;;;;;;5035557;28;20442;-88
2024/02/10 03:56:02;;;;;;;1.50;0.90;;;24.00;58.60;;;;;;5035229;28;20446;-88
2024/02/10 03:58:29;;;;;;;1.50;1.00;;;24.00;58.60;;;;;;5035471;28;20516;-87
2024/02/10 04:00:57;;;;;;;1.40;0.90;;;24.00;58.50;;;;;;5035694;28;20450;-88
2024/02/10 04:03:28;;;;;;;2.43;1.00;;;24.00;58.60;;;;;;5035303;28;20481;-88
2024/02/10 04:05:56;;;;;;;1.57;0.93;;;24.00;58.60;;;;;;5035177;28;20563;-88
2024/02/10 04:08:24;;;;;;;4.03;1.03;;;24.00;58.50;;;;;;5036013;28;20810;-88
2024/02/10 04:10:51;;;;;;;2.70;0.97;;;24.00;58.50;;;;;;5038912;28;20541;-88
2024/02/10 04:13:18;;;;;;;1.40;0.90;;;24.00;58.50;;;;;;5035005;28;20629;-88
2024/02/10 04:15:45;;;;;;;1.50;0.90;;;24.00;58.50;;;;;;5035076;28;20477;-88
2024/02/10 04:18:12;;;;;;;1.60;1.00;;;24.00;58.40;;;;;;5036930;28;20462;-88
2024/02/10 04:20:41;;;;;;;2.10;1.07;;;24.00;59.10;;;;;;5039544;28;20466;-88
2024/02/10 04:23:10;;;;;;;1.60;1.10;;;24.00;58.50;;;;;;5039113;28;20446;-88
2024/02/10 04:25:39;;;;;;;2.10;1.13;;;24.00;58.50;;;;;;5038652;28;20537;-88
2024/02/10 04:28:06;;;;;;;1.40;0.80;;;24.00;58.50;;;;;;5037745;28;20846;-88
2024/02/10 04:30:33;;;;;;;1.43;0.90;;;24.00;58.50;;;;;;5038325;28;20498;-88
2024/02/10 04:33:01;;;;;;;1.83;1.10;;;24.00;58.50;;;;;;5058323;28;20433;-87
2024/02/10 04:35:28;;;;;;;1.60;1.03;;;24.00;58.60;;;;;;5058439;28;20441;-88
2024/02/10 04:37:55;;;;;;;1.50;0.93;;;24.00;58.60;;;;;;5050980;28;20465;-87
2024/02/10 04:40:24;;;;;;;1.40;0.80;;;23.90;58.50;;;;;;5047960;28;20450;-88
2024/02/10 04:42:53;;;;;;;1.60;0.90;;;24.00;58.60;;;;;;5048221;28;20449;-88
2024/02/10 04:45:28;;;;;;;1.60;1.00;;;23.90;58.50;;;;;;5036301;28;20438;-87
2024/02/10 04:47:56;;;;;;;1.40;0.80;;;24.00;58.60;;;;;;5034946;28;20577;-88
2024/02/10 04:50:23;;;;;;;1.50;1.00;;;24.00;58.60;;;;;;5034358;28;20454;-88
2024/02/10 04:52:50;;;;;;;1.90;0.97;;;23.90;58.60;;;;;;5034554;28;20442;-88
2024/02/10 04:55:19;;;;;;;1.50;0.93;;;23.90;58.50;;;;;;5034422;28;20529;-88
2024/02/10 04:57:46;;;;;;;1.53;0.90;;;24.00;58.60;;;;;;5034307;28;20453;-89
2024/02/10 05:00:16;;;;;;;1.50;1.03;;;24.00;58.50;;;;;;5034045;28;20442;-89
2024/02/10 05:02:47;;;;;;;1.60;0.90;;;23.90;58.50;;;;;;5036696;28;20469;-89
2024/02/10 05:05:15;;;;;;;1.97;1.00;;;23.90;58.50;;;;;;5035250;28;20517;-88
2024/02/10 05:07:43;;;;;;;1.83;1.00;;;23.90;58.50;;;;;;5034262;28;20513;-88
2024/02/10 05:10:11;;;;;;;1.70;1.00;;;24.00;58.60;;;;;;5038371;28;20450;-88
2024/02/10 05:12:39;;;;;;;1.40;0.90;;;24.00;58.60;;;;;;5038122;28;20457;-88
2024/02/10 05:15:09;;;;;;;1.63;0.90;;;24.00;58.50;;;;;;5039492;28;20434;-88
2024/02/10 05:17:41;;;;;;;1.57;0.90;;;23.90;58.40;;;;;;5038318;28;20492;-88
2024/02/10 05:20:13;;;;;;;1.50;0.90;;;24.00;58.50;;;;;;5038462;28;20426;-88
2024/02/10 05:22:42;;;;;;;1.50;0.90;;;24.00;58.50;;;;;;5038188;28;20450;-87
2024/02/10 05:25:11;;;;;;;1.50;0.87;;;24.00;58.50;;;;;;5038500;28;20845;-88
2024/02/10 05:27:38;;;;;;;1.80;1.30;;;24.00;58.40;;;;;;5037831;28;21008;-88
2024/02/10 05:30:14;;;;;;;1.40;0.90;;;24.00;58.40;;;;;;5039187;28;20443;-88
2024/02/10 05:32:45;;;;;;;1.50;0.90;;;24.00;58.40;;;;;;5039251;28;20446;-88
2024/02/10 05:35:18;;;;;;;1.50;1.00;;;24.10;58.40;;;;;;5042842;28;20438;-88
2024/02/10 05:37:47;;;;;;;1.40;0.80;;;24.10;58.40;;;;;;5041249;28;20826;-88
2024/02/10 05:40:14;;;;;;;1.40;0.80;;;24.10;58.40;;;;;;5038677;28;20445;-88
2024/02/10 05:42:43;;;;;;;1.50;0.90;;;24.10;58.40;;;;;;5035745;28;20944;-87
2024/02/10 05:45:11;;;;;;;1.40;0.90;;;24.10;58.30;;;;;;5034229;28;20452;-88
2024/02/10 05:47:40;;;;;;;1.70;0.90;;;24.10;58.30;;;;;;5035437;28;20553;-87
2024/02/10 05:50:12;;;;;;;1.40;0.90;;;24.10;58.30;;;;;;5035933;28;20442;-88
2024/02/10 05:52:41;;;;;;;1.43;0.87;;;24.10;58.30;;;;;;5035133;28;20458;-88
2024/02/10 05:55:09;;;;;;;1.40;0.90;;;24.10;58.20;;;;;;5035549;28;20470;-88
2024/02/10 05:57:36;;;;;;;1.40;0.80;;;24.10;58.30;;;;;;5034691;28;20446;-88
2024/02/10 06:00:09;;;;;;;1.70;1.00;;;24.10;58.30;;;;;;5038906;28;20442;-88
2024/02/10 06:02:39;;;;;;;1.53;0.90;;;24.10;58.30;;;;;;5035187;28;20517;-89
2024/02/10 06:05:09;;;;;;;1.43;0.73;;;24.10;58.30;;;;;;5034273;28;20446;-89
2024/02/10 06:07:36;;;;;;;1.60;0.80;;;24.10;58.20;;;;;;5034101;28;20490;-88
2024/02/10 06:10:07;;;;;;;1.40;0.80;;;24.10;58.30;;;;;;5037269;28;20445;-89
2024/02/10 06:12:34;;;;;;;1.53;0.97;;;24.10;58.20;;;;;;5039384;28;20443;-89
2024/02/10 06:15:01;;;;;;;1.30;0.80;;;24.10;58.20;;;;;;5039443;28;20448;-89
2024/02/10 06:17:28;;;;;;;1.50;0.70;;;24.10;58.20;;;;;;5038725;28;20529;-90
2024/02/10 06:19:55;;;;;;;1.60;0.90;;;24.10;58.20;;;;;;5038336;28;20443;-89
2024/02/10 06:22:26;;;;;;;1.87;0.80;;;24.10;58.20;;;;;;5038350;28;20442;-89
2024/02/10 06:24:56;;;;;;;1.50;0.80;;;24.10;58.20;;;;;;5037779;28;20530;-89
2024/02/10 06:27:23;;;;;;;1.50;0.90;;;24.10;58.20;;;;;;5037869;28;20551;-88
2024/02/10 06:29:49;;;;;;;1.63;1.00;;;24.10;58.10;;;;;;5037068;28;20446;-89
2024/02/10 06:32:17;;;;;;;1.40;0.80;;;24.20;58.20;;;;;;5038206;28;20446;-89
2024/02/10 06:34:51;;;;;;;1.60;0.90;;;24.20;58.20;;;;;;5037830;28;20542;-89
2024/02/10 06:37:18;;;;;;;1.40;0.90;;;24.20;58.20;;;;;;5037435;28;20471;-89
2024/02/10 06:39:47;;;;;;;1.53;0.87;;;24.20;58.10;;;;;;5037426;28;20450;-89
2024/02/10 06:42:14;;;;;;;1.40;0.80;;;24.10;58.10;;;;;;5036921;28;20442;-89
2024/02/10 06:44:44;;;;;;;1.43;0.90;;;24.20;58.20;;;;;;5037108;28;20442;-89
2024/02/10 06:47:10;;;;;;;1.43;0.90;;;24.20;58.20;;;;;;5037228;28;20470;-88
2024/02/10 06:49:37;;;;;;;1.50;0.90;;;24.10;58.10;;;;;;5036459;28;20529;-88
2024/02/10 06:52:05;;;;;;;1.80;1.00;;;24.20;58.20;;;;;;5036720;28;20821;-88
2024/02/10 06:54:32;;;;;;;2.57;0.90;;;24.20;58.10;;;;;;5036304;28;20442;-88
2024/02/10 06:57:02;;;;;;;1.43;0.90;;;24.20;58.10;;;;;;5036566;28;20453;-88
2024/02/10 06:59:29;;;;;;;1.40;0.80;;;24.30;58.20;;;;;;5036514;28;20442;-88
2024/02/10 07:01:56;;;;;;;1.40;0.80;;;24.20;58.10;;;;;;5036597;28;20438;-88
2024/02/10 07:04:23;;;;;;;1.37;0.80;;;24.20;58.10;;;;;;5035604;28;20481;-88
2024/02/10 07:06:53;;;;;;;1.50;0.90;;;24.20;58.10;;;;;;5036090;28;20494;-88
2024/02/10 07:09:21;;;;;;;1.53;0.83;;;24.20;58.10;;;;;;5036315;28;20537;-88
2024/02/10 07:11:49;;;;;;;1.40;0.70;;;24.20;58.10;;;;;;5036169;28;20445;-88
2024/02/10 07:14:18;;;;;;;1.30;0.70;;;24.20;58.10;;;;;;5036025;28;20446;-88
2024/02/10 07:16:45;;;;;;;2.13;1.00;;;24.20;58.00;;;;;;5036103;28;20447;-88
2024/02/10 07:19:12;;;;;;;1.40;0.80;;;24.20;58.00;;;;;;5035905;28;20444;-88
2024/02/10 07:21:39;;;;;;;1.50;0.90;;;24.20;58.00;;;;;;5036127;28;20537;-89
2024/02/10 07:24:07;;;;;;;1.70;1.30;;;24.20;58.00;;;;;;5034892;28;20446;-88
2024/02/10 07:26:35;;;;;;;1.30;0.63;;;24.20;58.00;;;;;;5035670;28;20450;-89
2024/02/10 07:29:02;;;;;;;1.40;0.80;;;24.20;58.00;;;;;;5035962;28;20530;-89
2024/02/10 07:31:30;;;;;;;1.80;0.87;;;24.20;58.00;;;;;;5036224;28;20450;-87
2024/02/10 07:33:58;;;;;;;1.30;0.80;;;24.20;57.80;;;;;;5036082;28;20532;-90
2024/02/10 07:36:32;;;;;;;1.30;0.70;;;24.20;58.10;;;;;;5035828;28;20462;-87
2024/02/10 07:39:00;;;;;;;1.40;0.80;;;24.20;58.20;;;;;;5035550;28;20521;-89
2024/02/10 07:41:27;;;;;;;1.83;0.87;;;24.20;58.30;;;;;;5035524;28;20443;-89
2024/02/10 07:43:54;;;;;;;2.47;0.80;;;24.20;58.30;;;;;;5035416;28;20468;-90
2024/02/10 07:46:21;;;;;;;1.40;0.80;;;24.20;58.20;;;;;;5035595;28;20450;-92
2024/02/10 07:48:49;;;;;;;1.90;0.97;;;24.20;58.20;;;;;;5035168;28;20854;-89
2024/02/10 07:51:20;;;;;;;8.40;1.10;;;24.20;58.30;;;;;;5056264;28;20506;-89
2024/02/10 07:53:47;;;;;;;2.17;1.10;;;24.20;57.90;;;;;;5058317;28;20437;-85
2024/02/10 07:56:14;;;;;;;1.80;0.90;;;24.10;57.70;;;;;;5043568;28;20438;-86
2024/02/10 07:58:41;;;;;;;5.20;1.00;;;24.10;58.10;;;;;;5034583;28;20449;-86
2024/02/10 08:01:08;;;;;;;2.53;0.70;;;24.20;58.30;;;;;;5035940;28;20836;-88
2024/02/10 08:03:35;;;;;;;2.20;0.80;;;24.10;58.30;;;;;;5035764;28;20485;-86
2024/02/10 08:06:05;;;;;;;1.60;0.80;;;24.10;58.40;;;;;;5035043;28;20824;-88
2024/02/10 08:08:31;;;;;;;2.90;0.80;;;24.10;58.50;;;;;;5034551;28;20573;-87
2024/02/10 08:10:58;;;;;;;3.47;1.00;;;24.20;58.50;;;;;;5034432;28;20434;-87
2024/02/10 08:13:27;;;;;;;2.37;0.90;;;24.20;58.50;;;;;;5032757;28;20537;-86
2024/02/10 08:15:55;;;;;;;1.70;1.10;;;24.20;58.60;;;;;;5034305;28;20449;-87
2024/02/10 08:18:22;;;;;;;4.10;0.93;;;24.20;58.60;;;;;;5034186;28;20454;-87
2024/02/10 08:20:49;;;;;;;2.00;0.90;;;24.20;58.70;;;;;;5034221;28;20529;-86
2024/02/10 08:23:17;;;;;;;1.83;0.83;;;24.20;58.70;;;;;;5034072;28;20450;-87
2024/02/10 08:25:44;;;;;;;2.27;1.37;;;24.20;58.70;;;;;;5034538;28;20461;-86
2024/02/10 08:28:11;;;;;;;1.50;0.80;;;24.20;58.70;;;;;;5033628;28;20573;-87
2024/02/10 08:30:39;;;;;;;3.73;1.20;;;24.30;58.80;;;;;;5034297;28;20461;-88
2024/02/10 08:33:06;;;;;;;2.17;0.83;;;24.30;58.80;;;;;;5034215;28;20807;-86
2024/02/10 08:35:36;;;;;;;4.80;1.00;;;24.40;59.00;;;;;;5033710;28;20485;-87
2024/02/10 08:38:04;;;;;;;3.00;1.83;;;24.40;59.00;;;;;;5035154;28;20934;-89
2024/02/10 08:40:32;;;;;;;4.93;0.90;;;24.40;58.90;;;;;;5033950;28;20435;-90
2024/02/10 08:42:59;;;;;;;1.80;0.83;;;24.50;59.40;;;;;;5034220;28;20438;-89
2024/02/10 08:45:28;;;;;;;2.90;1.10;;;24.60;58.70;;;;;;5033533;28;20529;-87
2024/02/10 08:47:55;;;;;;;2.80;0.87;;;24.60;58.60;;;;;;5026211;28;20862;-86
2024/02/10 08:50:22;;;;;;;3.13;0.90;;;24.60;58.70;;;;;;5034001;28;20458;-89
2024/02/10 08:52:51;;;;;;;3.97;1.20;;;24.70;58.60;;;;;;5033872;28;20450;-88
2024/02/10 08:55:18;;;;;;;1.70;0.93;;;24.60;58.90;;;;;;5034172;28;21237;-88
2024/02/10 08:57:46;;;;;;;2.33;1.47;;;24.60;58.30;;;;;;5034450;28;20453;-88
2024/02/10 09:00:15;;;;;;;2.57;0.90;;;24.70;58.90;;;;;;5033927;28;20798;-87
2024/02/10 09:02:45;;;;;;;3.83;0.80;;;24.80;58.30;;;;;;5050165;28;20490;-87
2024/02/10 09:05:12;;;;;;;2.73;0.87;;;24.80;58.00;;;;;;5052205;28;20454;-87
2024/02/10 09:07:39;;;;;;;4.27;1.83;;;24.90;58.00;;;;;;5034273;28;20493;-83
2024/02/10 09:10:08;;;;;;;1.60;0.80;;;25.10;58.00;;;;;;5038463;28;20434;-85
2024/02/10 09:12:35;;;;;;;2.63;0.90;;;25.10;57.90;;;;;;5036990;28;20465;-91
2024/02/10 09:15:04;;;;;;;1.50;0.90;;;25.20;57.70;;;;;;5039230;28;20453;-91
2024/02/10 09:17:33;;;;;;;2.20;1.10;;;25.30;57.50;;;;;;5043907;28;20916;-91
2024/02/10 09:20:08;;;;;;;3.50;0.90;;;25.40;57.30;;;;;;5042872;28;20496;-91
2024/02/10 09:22:39;;;;;;;3.50;1.20;;;25.60;57.00;;;;;;5041679;28;20430;-90
2024/02/10 09:25:10;;;;;;;2.10;0.93;;;25.80;56.70;;;;;;5042268;28;20410;-91
2024/02/10 09:27:46;;;;;;;2.90;1.00;;;25.90;56.40;;;;;;5042412;28;20479;-91
2024/02/10 09:30:18;;;;;;;4.23;1.00;;;26.00;56.30;;;;;;5050341;28;20418;-88
2024/02/10 09:32:49;;;;;;;3.80;1.00;;;26.20;56.20;;;;;;5044036;28;20437;-82
2024/02/10 09:35:18;;;;;;;4.03;1.43;;;26.30;56.20;;;;;;5037579;28;20444;-84
2024/02/10 09:37:46;;;;;;;1.60;0.80;;;26.40;56.20;;;;;;5040131;28;20438;-83
2024/02/10 09:40:18;;;;;;;2.73;1.03;;;26.40;55.90;;;;;;5039943;28;20465;-85
2024/02/10 09:42:53;;;;;;;1.50;0.83;;;26.50;56.00;;;;;;5039417;28;20483;-84
2024/02/10 09:45:24;;;;;;;1.90;1.00;;;26.50;55.90;;;;;;5039986;28;20461;-83
2024/02/10 09:47:52;;;;;;;2.17;1.00;;;26.60;55.70;;;;;;5042653;28;20492;-83
2024/02/10 09:50:20;;;;;;;2.90;1.10;;;26.80;55.50;;;;;;5041447;28;20840;-82
2024/02/10 09:52:48;;;;;;;1.70;0.93;;;27.10;55.30;;;;;;5041904;28;20515;-82
2024/02/10 09:55:17;;;;;;;3.03;1.00;;;27.30;55.10;;;;;;5040614;28;20468;-79
2024/02/10 09:57:48;;;;;;;2.37;1.30;;;27.40;54.70;;;;;;5041159;28;20520;-81
2024/02/10 10:00:17;;;;;;;7.20;1.83;;;27.60;54.60;;;;;;5040913;28;20438;-82
2024/02/10 10:03:05;;;;;;;7.67;2.20;;;27.80;54.70;;;;;;5041054;28;20461;-83
2024/02/10 10:08:24;;;;;;;4.33;2.00;;;28.10;54.10;;;;;;5037135;28;20478;-82
2024/02/10 10:10:51;;;;;;;13.23;3.17;;;28.20;54.00;;;;;;5038283;28;20442;-81
2024/02/10 10:13:21;;;;;;;8.00;2.23;;;28.30;54.00;;;;;;5037789;28;20438;-80
2024/02/10 10:15:48;;;;;;;8.00;2.27;;;28.40;53.80;;;;;;5037928;28;20438;-80
2024/02/10 10:18:19;;;;;;;5.63;2.27;;;28.30;53.60;;;;;;5038160;28;20465;-82
2024/02/10 10:20:48;;;;;;;12.03;1.80;;;28.10;53.60;;;;;;5038338;28;20470;-82
2024/02/10 10:23:15;;;;;;;8.20;2.50;;;28.00;53.70;;;;;;5038028;28;20476;-81
2024/02/10 10:25:44;;;;;;;4.83;2.37;;;28.00;53.90;;;;;;5050379;28;20440;-81
2024/02/10 10:28:16;;;;;;;8.73;2.17;;;28.10;54.00;;;;;;5061276;28;20489;-80
2024/02/10 10:30:46;;;;;;;5.50;1.70;;;28.20;53.90;;;;;;5058606;28;20441;-82
2024/02/10 10:33:13;;;;;;;4.27;1.60;;;28.20;53.90;;;;;;5059320;28;20433;-81
2024/02/10 10:35:44;;;;;;;4.37;2.10;;;28.00;54.10;;;;;;5058299;28;20535;-82
2024/02/10 10:38:12;;;;;;;5.60;2.13;;;27.90;54.50;;;;;;5052822;28;20456;-81
2024/02/10 10:40:39;;;;;;;5.80;1.80;;;27.80;54.60;;;;;;5057767;28;20433;-81
2024/02/10 10:43:10;;;;;;;6.50;2.13;;;27.70;54.60;;;;;;5041926;28;20430;-81
2024/02/10 10:45:39;;;;;;;4.30;1.83;;;27.60;54.70;;;;;;5038052;28;20461;-80
2024/02/10 10:48:07;;;;;;;5.90;1.93;;;27.50;54.90;;;;;;5045506;28;20519;-81
2024/02/10 10:50:35;;;;;;;7.33;1.70;;;27.50;54.90;;;;;;5018037;28;20525;-79
2024/02/10 10:53:06;;;;;;;9.67;2.30;;;27.30;55.00;;;;;;5018069;28;20927;-79
2024/02/10 10:55:36;;;;;;;8.63;2.57;;;27.20;55.30;;;;;;5039083;28;20849;-84
2024/02/10 10:58:07;;;;;;;6.57;2.00;;;27.10;55.40;;;;;;5038935;28;20447;-80
2024/02/10 11:00:37;;;;;;;5.00;1.90;;;26.80;55.90;;;;;;5038423;28;20442;-80
2024/02/10 11:03:08;;;;;;;6.80;2.23;;;26.60;56.50;;;;;;5039244;28;20506;-82
2024/02/10 11:05:40;;;;;;;4.90;1.90;;;26.50;56.80;;;;;;5041359;28;20445;-85
2024/02/10 11:08:13;;;;;;;7.90;1.83;;;26.50;57.10;;;;;;5040995;28;20541;-85
2024/02/10 11:10:41;;;;;;;4.17;1.83;;;26.40;57.10;;;;;;5046150;28;20446;-82
2024/02/10 11:13:09;;;;;;;3.20;1.77;;;26.40;57.30;;;;;;5044467;28;20446;-81
2024/02/10 11:15:40;;;;;;;4.90;2.30;;;26.30;57.40;;;;;;5038503;28;20510;-81
2024/02/10 11:18:14;;;;;;;4.87;1.87;;;26.30;57.50;;;;;;5036548;28;20438;-80
2024/02/10 11:20:42;;;;;;;2.80;1.47;;;26.40;57.60;;;;;;5036803;28;20791;-81
2024/02/10 11:23:14;;;;;;;3.30;1.70;;;26.30;57.60;;;;;;5036241;28;20549;-81
2024/02/10 11:25:43;;;;;;;7.87;1.70;;;26.30;57.70;;;;;;5036473;28;20445;-79
2024/02/10 11:28:21;;;;;;;3.80;1.63;;;26.30;57.80;;;;;;5036658;28;20481;-79
2024/02/10 11:30:49;;;;;;;4.87;1.73;;;26.30;57.90;;;;;;5036868;28;20441;-80
2024/02/10 11:33:23;;;;;;;3.73;1.60;;;26.30;57.90;;;;;;5037174;28;20454;-81
2024/02/10 11:35:52;;;;;;;4.13;1.70;;;26.30;57.90;;;;;;5036267;28;20807;-80
2024/02/10 11:38:21;;;;;;;3.63;1.40;;;26.30;58.00;;;;;;5036604;28;20434;-82
2024/02/10 11:40:50;;;;;;;3.30;1.50;;;26.30;58.10;;;;;;5036199;28;20471;-81
2024/02/10 11:43:21;;;;;;;4.17;1.77;;;26.30;58.10;;;;;;5036123;28;20457;-81
2024/02/10 11:45:48;;;;;;;5.20;1.80;;;26.30;58.10;;;;;;5036748;28;20442;-81
2024/02/10 11:48:17;;;;;;;9.63;1.70;;;26.30;58.10;;;;;;5036133;28;20470;-81
2024/02/10 11:50:45;;;;;;;3.50;1.40;;;26.20;58.30;;;;;;5035297;28;20439;-81
2024/02/10 11:53:12;;;;;;;2.37;1.60;;;26.20;58.40;;;;;;5035802;28;20450;-80
2024/02/10 11:55:47;;;;;;;3.40;1.33;;;26.10;58.40;;;;;;5036636;28;20443;-81
2024/02/10 11:58:18;;;;;;;2.77;1.37;;;26.10;58.50;;;;;;5036959;28;20491;-82
2024/02/10 12:00:46;;;;;;;2.00;1.23;;;26.10;58.60;;;;;;5036459;28;20797;-81
2024/02/10 12:03:15;;;;;;;3.37;1.63;;;26.10;58.60;;;;;;5035818;28;20478;-82
2024/02/10 12:05:42;;;;;;;6.33;1.63;;;26.10;58.70;;;;;;5036007;28;20462;-82
2024/02/10 12:08:10;;;;;;;2.63;1.60;;;26.00;58.70;;;;;;5036144;28;20573;-82
2024/02/10 12:10:38;;;;;;;3.63;1.50;;;26.10;58.80;;;;;;5036114;28;20440;-82
2024/02/10 12:13:09;;;;;;;2.37;1.50;;;26.00;58.80;;;;;;5036264;28;20438;-82
2024/02/10 12:15:38;;;;;;;2.43;1.67;;;25.90;58.80;;;;;;5036766;28;20434;-81
2024/02/10 12:18:08;;;;;;;5.20;1.50;;;25.90;58.80;;;;;;5035495;28;20496;-82
2024/02/10 12:20:37;;;;;;;4.50;1.60;;;25.90;58.80;;;;;;5034053;28;20492;-82
2024/02/10 12:23:04;;;;;;;2.57;1.40;;;25.90;58.90;;;;;;5033952;28;20434;-82
2024/02/10 12:25:32;;;;;;;2.63;1.70;;;25.90;58.90;;;;;;5033817;28;20434;-82
2024/02/10 12:27:59;;;;;;;4.17;1.20;;;25.90;58.90;;;;;;5033757;28;20446;-82
2024/02/10 12:30:27;;;;;;;4.20;1.63;;;25.90;58.90;;;;;;5033644;28;20781;-81
2024/02/10 12:32:54;;;;;;;2.80;1.50;;;25.90;59.00;;;;;;5033714;28;20449;-81
2024/02/10 12:35:21;;;;;;;1.70;1.00;;;25.80;58.90;;;;;;5033587;28;20969;-82
2024/02/10 12:37:48;;;;;;;3.30;1.57;;;25.90;59.00;;;;;;5033564;28;20914;-81
2024/02/10 12:40:16;;;;;;;3.43;1.50;;;25.80;59.00;;;;;;5033490;28;20440;-82
2024/02/10 12:42:46;;;;;;;2.00;1.23;;;25.80;59.10;;;;;;5032458;28;20453;-86
2024/02/10 12:45:14;;;;;;;2.33;1.30;;;25.80;59.00;;;;;;5033224;28;20448;-82
2024/02/10 12:47:43;;;;;;;6.60;2.20;;;25.90;58.80;;;;;;5033297;28;20461;-82
2024/02/10 12:50:10;;;;;;;3.93;1.37;;;25.90;58.90;;;;;;5033679;28;20842;-83
2024/02/10 12:52:39;;;;;;;10.03;1.33;;;25.90;59.20;;;;;;5036623;28;20438;-87
2024/02/10 12:55:09;;;;;;;5.70;1.40;;;25.80;59.30;;;;;;5036045;28;20949;-87